sensor_id;sensor_type;location;lat;lon;timestamp;P1;durP1;ratioP1;P2;durP2;ratioP2
34060;SDS011;20336;-33.424;-70.638;2023-07-24T00:00:17;43.10;;;25.83;;
34060;SDS011;20336;-33.424;-70.638;2023-07-24T00:02:44;42.60;;;24.73;;
34060;SDS011;20336;-33.424;-70.638;2023-07-24T00:05:11;36.87;;;23.30;;
34060;SDS011;20336;-33.424;-70.638;2023-07-24T00:07:38;35.57;;;21.57;;
34060;SDS011;20336;-33.424;-70.638;2023-07-24T00:10:05;31.80;;;20.63;;
34060;SDS011;20336;-33.424;-70.638;2023-07-24T00:12:32;31.80;;;19.23;;
34060;SDS011;20336;-33.424;-70.638;2023-07-24T00:14:59;25.80;;;16.60;;
34060;SDS011;20336;-33.424;-70.638;2023-07-24T00:17:26;39.97;;;16.93;;
34060;SDS011;20336;-33.424;-70.638;2023-07-24T00:19:52;24.70;;;16.87;;
34060;SDS011;20336;-33.424;-70.638;2023-07-24T00:22:19;30.47;;;17.07;;
34060;SDS011;20336;-33.424;-70.638;2023-07-24T00:24:46;24.07;;;16.00;;
34060;SDS011;20336;-33.424;-70.638;2023-07-24T00:27:13;24.07;;;14.20;;
34060;SDS011;20336;-33.424;-70.638;2023-07-24T00:29:40;21.93;;;14.20;;
34060;SDS011;20336;-33.424;-70.638;2023-07-24T00:32:07;23.17;;;14.77;;
34060;SDS011;20336;-33.424;-70.638;2023-07-24T00:34:34;21.93;;;14.53;;
34060;SDS011;20336;-33.424;-70.638;2023-07-24T00:37:01;24.93;;;16.00;;
34060;SDS011;20336;-33.424;-70.638;2023-07-24T00:39:28;20.37;;;13.47;;
34060;SDS011;20336;-33.424;-70.638;2023-07-24T00:41:55;21.67;;;12.67;;
34060;SDS011;20336;-33.424;-70.638;2023-07-24T00:44:22;15.93;;;9.40;;
34060;SDS011;20336;-33.424;-70.638;2023-07-24T00:46:49;12.63;;;7.27;;
34060;SDS011;20336;-33.424;-70.638;2023-07-24T00:49:16;8.90;;;6.23;;
34060;SDS011;20336;-33.424;-70.638;2023-07-24T00:51:44;14.10;;;8.37;;
34060;SDS011;20336;-33.424;-70.638;2023-07-24T00:54:12;30.13;;;16.03;;
34060;SDS011;20336;-33.424;-70.638;2023-07-24T00:56:42;31.00;;;15.07;;
34060;SDS011;20336;-33.424;-70.638;2023-07-24T00:59:11;26.30;;;15.60;;
34060;SDS011;20336;-33.424;-70.638;2023-07-24T01:01:38;23.93;;;15.23;;
34060;SDS011;20336;-33.424;-70.638;2023-07-24T01:04:07;17.30;;;9.13;;
34060;SDS011;20336;-33.424;-70.638;2023-07-24T01:06:34;15.20;;;7.33;;
34060;SDS011;20336;-33.424;-70.638;2023-07-24T01:09:01;13.20;;;7.70;;
34060;SDS011;20336;-33.424;-70.638;2023-07-24T01:11:29;13.90;;;8.93;;
34060;SDS011;20336;-33.424;-70.638;2023-07-24T01:14:21;21.80;;;12.00;;
34060;SDS011;20336;-33.424;-70.638;2023-07-24T01:17:01;29.23;;;17.67;;
34060;SDS011;20336;-33.424;-70.638;2023-07-24T01:28:09;29.27;;;18.27;;
34060;SDS011;20336;-33.424;-70.638;2023-07-24T01:30:36;31.90;;;18.40;;
34060;SDS011;20336;-33.424;-70.638;2023-07-24T01:33:03;37.53;;;22.17;;
34060;SDS011;20336;-33.424;-70.638;2023-07-24T01:35:30;40.43;;;23.13;;
34060;SDS011;20336;-33.424;-70.638;2023-07-24T01:37:57;41.03;;;24.73;;
34060;SDS011;20336;-33.424;-70.638;2023-07-24T01:40:26;39.10;;;23.30;;
34060;SDS011;20336;-33.424;-70.638;2023-07-24T01:42:52;35.47;;;22.03;;
34060;SDS011;20336;-33.424;-70.638;2023-07-24T01:45:19;40.10;;;21.60;;
34060;SDS011;20336;-33.424;-70.638;2023-07-24T01:47:46;38.20;;;21.47;;
34060;SDS011;20336;-33.424;-70.638;2023-07-24T01:50:13;36.23;;;22.50;;
34060;SDS011;20336;-33.424;-70.638;2023-07-24T01:52:40;39.20;;;23.10;;
34060;SDS011;20336;-33.424;-70.638;2023-07-24T01:55:07;35.90;;;23.60;;
34060;SDS011;20336;-33.424;-70.638;2023-07-24T01:57:34;39.03;;;22.47;;
34060;SDS011;20336;-33.424;-70.638;2023-07-24T02:00:01;35.63;;;21.60;;
34060;SDS011;20336;-33.424;-70.638;2023-07-24T02:02:28;35.53;;;21.47;;
34060;SDS011;20336;-33.424;-70.638;2023-07-24T02:04:55;32.83;;;20.17;;
34060;SDS011;20336;-33.424;-70.638;2023-07-24T02:07:22;31.13;;;18.67;;
34060;SDS011;20336;-33.424;-70.638;2023-07-24T02:09:49;28.90;;;17.90;;
34060;SDS011;20336;-33.424;-70.638;2023-07-24T02:12:16;27.47;;;18.23;;
34060;SDS011;20336;-33.424;-70.638;2023-07-24T02:14:43;43.23;;;24.07;;
34060;SDS011;20336;-33.424;-70.638;2023-07-24T02:17:10;31.47;;;21.20;;
34060;SDS011;20336;-33.424;-70.638;2023-07-24T02:19:37;34.07;;;19.87;;
34060;SDS011;20336;-33.424;-70.638;2023-07-24T02:22:03;40.00;;;22.43;;
34060;SDS011;20336;-33.424;-70.638;2023-07-24T02:24:30;32.80;;;20.70;;
34060;SDS011;20336;-33.424;-70.638;2023-07-24T02:26:57;36.20;;;20.97;;
34060;SDS011;20336;-33.424;-70.638;2023-07-24T02:29:24;36.83;;;23.10;;
34060;SDS011;20336;-33.424;-70.638;2023-07-24T02:31:51;34.77;;;21.20;;
34060;SDS011;20336;-33.424;-70.638;2023-07-24T02:34:19;35.43;;;20.73;;
34060;SDS011;20336;-33.424;-70.638;2023-07-24T02:36:50;37.03;;;21.93;;
34060;SDS011;20336;-33.424;-70.638;2023-07-24T02:39:16;36.30;;;22.30;;
34060;SDS011;20336;-33.424;-70.638;2023-07-24T02:41:43;39.33;;;22.10;;
34060;SDS011;20336;-33.424;-70.638;2023-07-24T02:44:11;31.63;;;21.33;;
34060;SDS011;20336;-33.424;-70.638;2023-07-24T02:46:38;33.97;;;21.43;;
34060;SDS011;20336;-33.424;-70.638;2023-07-24T02:49:04;35.57;;;21.80;;
34060;SDS011;20336;-33.424;-70.638;2023-07-24T02:51:31;36.07;;;21.30;;
34060;SDS011;20336;-33.424;-70.638;2023-07-24T02:53:58;37.57;;;20.30;;
34060;SDS011;20336;-33.424;-70.638;2023-07-24T02:56:25;36.23;;;21.77;;
34060;SDS011;20336;-33.424;-70.638;2023-07-24T02:58:52;29.53;;;20.07;;
34060;SDS011;20336;-33.424;-70.638;2023-07-24T03:01:19;29.30;;;19.80;;
34060;SDS011;20336;-33.424;-70.638;2023-07-24T03:03:46;37.80;;;21.13;;
34060;SDS011;20336;-33.424;-70.638;2023-07-24T03:06:12;31.20;;;21.60;;
34060;SDS011;20336;-33.424;-70.638;2023-07-24T03:08:39;33.87;;;21.10;;
34060;SDS011;20336;-33.424;-70.638;2023-07-24T03:11:07;33.30;;;20.97;;
34060;SDS011;20336;-33.424;-70.638;2023-07-24T03:13:34;30.87;;;20.07;;
34060;SDS011;20336;-33.424;-70.638;2023-07-24T03:16:01;29.47;;;19.40;;
34060;SDS011;20336;-33.424;-70.638;2023-07-24T03:18:27;33.43;;;20.43;;
34060;SDS011;20336;-33.424;-70.638;2023-07-24T03:20:56;31.13;;;19.77;;
34060;SDS011;20336;-33.424;-70.638;2023-07-24T03:23:24;31.17;;;20.17;;
34060;SDS011;20336;-33.424;-70.638;2023-07-24T03:25:51;30.60;;;19.90;;
34060;SDS011;20336;-33.424;-70.638;2023-07-24T03:28:18;31.77;;;19.57;;
34060;SDS011;20336;-33.424;-70.638;2023-07-24T03:30:45;33.23;;;21.60;;
34060;SDS011;20336;-33.424;-70.638;2023-07-24T03:33:13;32.67;;;20.17;;
34060;SDS011;20336;-33.424;-70.638;2023-07-24T03:35:40;35.33;;;22.30;;
34060;SDS011;20336;-33.424;-70.638;2023-07-24T03:38:07;33.90;;;21.17;;
34060;SDS011;20336;-33.424;-70.638;2023-07-24T03:40:34;37.70;;;24.30;;
34060;SDS011;20336;-33.424;-70.638;2023-07-24T03:43:01;41.20;;;24.53;;
34060;SDS011;20336;-33.424;-70.638;2023-07-24T03:45:28;46.23;;;24.23;;
34060;SDS011;20336;-33.424;-70.638;2023-07-24T03:47:55;45.80;;;26.57;;
34060;SDS011;20336;-33.424;-70.638;2023-07-24T03:50:22;39.57;;;23.90;;
34060;SDS011;20336;-33.424;-70.638;2023-07-24T03:52:49;46.10;;;25.67;;
34060;SDS011;20336;-33.424;-70.638;2023-07-24T03:55:15;43.10;;;26.50;;
34060;SDS011;20336;-33.424;-70.638;2023-07-24T03:57:42;36.57;;;24.30;;
34060;SDS011;20336;-33.424;-70.638;2023-07-24T04:00:09;49.00;;;27.63;;
34060;SDS011;20336;-33.424;-70.638;2023-07-24T04:02:37;46.80;;;27.97;;
34060;SDS011;20336;-33.424;-70.638;2023-07-24T04:05:05;52.20;;;31.23;;
34060;SDS011;20336;-33.424;-70.638;2023-07-24T04:07:32;53.33;;;32.53;;
34060;SDS011;20336;-33.424;-70.638;2023-07-24T04:09:59;48.27;;;28.80;;
34060;SDS011;20336;-33.424;-70.638;2023-07-24T04:12:25;45.77;;;27.13;;
34060;SDS011;20336;-33.424;-70.638;2023-07-24T04:14:52;46.77;;;27.97;;
34060;SDS011;20336;-33.424;-70.638;2023-07-24T04:17:19;37.47;;;24.33;;
34060;SDS011;20336;-33.424;-70.638;2023-07-24T04:19:46;46.70;;;23.47;;
34060;SDS011;20336;-33.424;-70.638;2023-07-24T04:22:13;33.27;;;21.07;;
34060;SDS011;20336;-33.424;-70.638;2023-07-24T04:24:40;35.20;;;20.37;;
34060;SDS011;20336;-33.424;-70.638;2023-07-24T04:27:08;32.50;;;20.90;;
34060;SDS011;20336;-33.424;-70.638;2023-07-24T04:29:56;30.43;;;17.07;;
34060;SDS011;20336;-33.424;-70.638;2023-07-24T04:32:22;35.67;;;20.63;;
34060;SDS011;20336;-33.424;-70.638;2023-07-24T04:34:49;56.97;;;31.77;;
34060;SDS011;20336;-33.424;-70.638;2023-07-24T04:37:15;35.83;;;21.97;;
34060;SDS011;20336;-33.424;-70.638;2023-07-24T04:39:45;51.93;;;28.90;;
34060;SDS011;20336;-33.424;-70.638;2023-07-24T04:42:11;66.50;;;37.87;;
34060;SDS011;20336;-33.424;-70.638;2023-07-24T04:44:38;51.57;;;28.83;;
34060;SDS011;20336;-33.424;-70.638;2023-07-24T04:47:05;32.87;;;19.77;;
34060;SDS011;20336;-33.424;-70.638;2023-07-24T04:49:32;29.23;;;19.00;;
34060;SDS011;20336;-33.424;-70.638;2023-07-24T04:51:59;31.40;;;18.43;;
34060;SDS011;20336;-33.424;-70.638;2023-07-24T04:54:26;27.27;;;17.07;;
34060;SDS011;20336;-33.424;-70.638;2023-07-24T04:56:54;30.07;;;18.33;;
34060;SDS011;20336;-33.424;-70.638;2023-07-24T04:59:21;29.47;;;16.60;;
34060;SDS011;20336;-33.424;-70.638;2023-07-24T05:01:49;20.87;;;12.23;;
34060;SDS011;20336;-33.424;-70.638;2023-07-24T05:04:16;20.33;;;12.87;;
34060;SDS011;20336;-33.424;-70.638;2023-07-24T05:06:43;17.60;;;12.13;;
34060;SDS011;20336;-33.424;-70.638;2023-07-24T05:09:10;15.43;;;10.30;;
34060;SDS011;20336;-33.424;-70.638;2023-07-24T05:11:37;20.67;;;11.83;;
34060;SDS011;20336;-33.424;-70.638;2023-07-24T05:14:04;33.03;;;19.87;;
34060;SDS011;20336;-33.424;-70.638;2023-07-24T05:16:31;37.37;;;22.27;;
34060;SDS011;20336;-33.424;-70.638;2023-07-24T05:18:57;38.07;;;23.53;;
34060;SDS011;20336;-33.424;-70.638;2023-07-24T05:21:24;44.93;;;26.80;;
34060;SDS011;20336;-33.424;-70.638;2023-07-24T05:23:51;40.90;;;24.47;;
34060;SDS011;20336;-33.424;-70.638;2023-07-24T05:26:18;43.33;;;26.40;;
34060;SDS011;20336;-33.424;-70.638;2023-07-24T05:28:47;42.27;;;26.70;;
34060;SDS011;20336;-33.424;-70.638;2023-07-24T05:31:14;56.17;;;29.43;;
34060;SDS011;20336;-33.424;-70.638;2023-07-24T05:33:41;36.73;;;22.87;;
34060;SDS011;20336;-33.424;-70.638;2023-07-24T05:36:08;34.50;;;19.40;;
34060;SDS011;20336;-33.424;-70.638;2023-07-24T05:38:34;22.03;;;13.97;;
34060;SDS011;20336;-33.424;-70.638;2023-07-24T05:41:02;25.23;;;14.07;;
34060;SDS011;20336;-33.424;-70.638;2023-07-24T05:43:30;25.40;;;14.40;;
34060;SDS011;20336;-33.424;-70.638;2023-07-24T05:45:58;23.47;;;14.53;;
34060;SDS011;20336;-33.424;-70.638;2023-07-24T05:48:25;23.50;;;14.33;;
34060;SDS011;20336;-33.424;-70.638;2023-07-24T05:50:51;23.53;;;13.87;;
34060;SDS011;20336;-33.424;-70.638;2023-07-24T05:53:18;28.57;;;16.57;;
34060;SDS011;20336;-33.424;-70.638;2023-07-24T05:55:45;25.30;;;16.07;;
34060;SDS011;20336;-33.424;-70.638;2023-07-24T05:58:12;28.53;;;17.73;;
34060;SDS011;20336;-33.424;-70.638;2023-07-24T06:00:40;27.27;;;17.10;;
34060;SDS011;20336;-33.424;-70.638;2023-07-24T06:03:07;35.07;;;19.73;;
34060;SDS011;20336;-33.424;-70.638;2023-07-24T06:05:34;29.97;;;18.13;;
34060;SDS011;20336;-33.424;-70.638;2023-07-24T06:08:00;32.00;;;20.50;;
34060;SDS011;20336;-33.424;-70.638;2023-07-24T06:10:27;42.43;;;24.43;;
34060;SDS011;20336;-33.424;-70.638;2023-07-24T06:12:54;42.53;;;26.50;;
34060;SDS011;20336;-33.424;-70.638;2023-07-24T06:15:21;47.77;;;28.20;;
34060;SDS011;20336;-33.424;-70.638;2023-07-24T06:17:48;42.83;;;28.30;;
34060;SDS011;20336;-33.424;-70.638;2023-07-24T06:20:15;52.30;;;30.87;;
34060;SDS011;20336;-33.424;-70.638;2023-07-24T06:22:42;49.57;;;28.30;;
34060;SDS011;20336;-33.424;-70.638;2023-07-24T06:25:09;51.23;;;31.07;;
34060;SDS011;20336;-33.424;-70.638;2023-07-24T06:27:35;51.63;;;30.90;;
34060;SDS011;20336;-33.424;-70.638;2023-07-24T06:30:03;52.67;;;31.67;;
34060;SDS011;20336;-33.424;-70.638;2023-07-24T06:32:30;58.37;;;33.27;;
34060;SDS011;20336;-33.424;-70.638;2023-07-24T06:34:57;54.57;;;33.70;;
34060;SDS011;20336;-33.424;-70.638;2023-07-24T06:37:24;59.13;;;32.63;;
34060;SDS011;20336;-33.424;-70.638;2023-07-24T06:39:51;52.33;;;31.53;;
34060;SDS011;20336;-33.424;-70.638;2023-07-24T06:42:18;50.13;;;31.90;;
34060;SDS011;20336;-33.424;-70.638;2023-07-24T06:44:45;55.57;;;32.80;;
34060;SDS011;20336;-33.424;-70.638;2023-07-24T06:47:12;51.83;;;33.43;;
34060;SDS011;20336;-33.424;-70.638;2023-07-24T06:49:38;52.77;;;32.20;;
34060;SDS011;20336;-33.424;-70.638;2023-07-24T06:52:05;39.73;;;24.77;;
34060;SDS011;20336;-33.424;-70.638;2023-07-24T06:54:32;38.50;;;22.43;;
34060;SDS011;20336;-33.424;-70.638;2023-07-24T06:56:59;30.67;;;21.13;;
34060;SDS011;20336;-33.424;-70.638;2023-07-24T06:59:26;31.83;;;19.17;;
34060;SDS011;20336;-33.424;-70.638;2023-07-24T07:01:53;33.80;;;19.93;;
34060;SDS011;20336;-33.424;-70.638;2023-07-24T07:04:20;30.77;;;19.83;;
34060;SDS011;20336;-33.424;-70.638;2023-07-24T07:06:47;32.00;;;19.50;;
34060;SDS011;20336;-33.424;-70.638;2023-07-24T07:09:14;33.60;;;20.93;;
34060;SDS011;20336;-33.424;-70.638;2023-07-24T07:11:41;36.53;;;22.53;;
34060;SDS011;20336;-33.424;-70.638;2023-07-24T07:14:10;40.67;;;26.17;;
34060;SDS011;20336;-33.424;-70.638;2023-07-24T07:16:38;43.90;;;25.23;;
34060;SDS011;20336;-33.424;-70.638;2023-07-24T07:19:06;41.53;;;26.73;;
34060;SDS011;20336;-33.424;-70.638;2023-07-24T07:21:34;52.90;;;32.73;;
34060;SDS011;20336;-33.424;-70.638;2023-07-24T07:24:01;62.60;;;30.80;;
34060;SDS011;20336;-33.424;-70.638;2023-07-24T07:26:28;71.03;;;40.70;;
34060;SDS011;20336;-33.424;-70.638;2023-07-24T07:28:55;51.33;;;32.13;;
34060;SDS011;20336;-33.424;-70.638;2023-07-24T07:31:22;45.00;;;29.37;;
34060;SDS011;20336;-33.424;-70.638;2023-07-24T07:33:49;39.63;;;25.33;;
34060;SDS011;20336;-33.424;-70.638;2023-07-24T07:36:16;50.53;;;26.93;;
34060;SDS011;20336;-33.424;-70.638;2023-07-24T07:38:48;41.33;;;25.57;;
34060;SDS011;20336;-33.424;-70.638;2023-07-24T07:41:15;34.00;;;22.20;;
34060;SDS011;20336;-33.424;-70.638;2023-07-24T07:43:41;29.90;;;18.60;;
34060;SDS011;20336;-33.424;-70.638;2023-07-24T07:46:08;31.10;;;19.77;;
34060;SDS011;20336;-33.424;-70.638;2023-07-24T07:48:36;31.87;;;18.77;;
34060;SDS011;20336;-33.424;-70.638;2023-07-24T07:51:03;32.50;;;20.43;;
34060;SDS011;20336;-33.424;-70.638;2023-07-24T07:53:30;33.60;;;20.63;;
34060;SDS011;20336;-33.424;-70.638;2023-07-24T07:55:57;30.90;;;19.17;;
34060;SDS011;20336;-33.424;-70.638;2023-07-24T07:58:27;37.40;;;21.10;;
34060;SDS011;20336;-33.424;-70.638;2023-07-24T08:00:54;30.30;;;19.87;;
34060;SDS011;20336;-33.424;-70.638;2023-07-24T08:03:21;29.97;;;18.23;;
34060;SDS011;20336;-33.424;-70.638;2023-07-24T08:05:48;50.63;;;27.50;;
34060;SDS011;20336;-33.424;-70.638;2023-07-24T08:08:15;47.97;;;30.43;;
34060;SDS011;20336;-33.424;-70.638;2023-07-24T08:10:42;31.23;;;21.40;;
34060;SDS011;20336;-33.424;-70.638;2023-07-24T08:13:09;32.23;;;21.03;;
34060;SDS011;20336;-33.424;-70.638;2023-07-24T08:15:36;35.20;;;21.83;;
34060;SDS011;20336;-33.424;-70.638;2023-07-24T08:18:03;58.23;;;35.93;;
34060;SDS011;20336;-33.424;-70.638;2023-07-24T08:20:31;74.23;;;45.63;;
34060;SDS011;20336;-33.424;-70.638;2023-07-24T08:23:00;69.77;;;41.37;;
34060;SDS011;20336;-33.424;-70.638;2023-07-24T08:25:27;66.47;;;40.67;;
34060;SDS011;20336;-33.424;-70.638;2023-07-24T08:27:54;93.43;;;52.20;;
34060;SDS011;20336;-33.424;-70.638;2023-07-24T08:30:21;79.90;;;49.37;;
34060;SDS011;20336;-33.424;-70.638;2023-07-24T08:32:48;98.30;;;53.63;;
34060;SDS011;20336;-33.424;-70.638;2023-07-24T08:35:18;79.43;;;47.17;;
34060;SDS011;20336;-33.424;-70.638;2023-07-24T08:37:45;69.60;;;42.83;;
34060;SDS011;20336;-33.424;-70.638;2023-07-24T08:40:12;101.23;;;55.33;;
34060;SDS011;20336;-33.424;-70.638;2023-07-24T08:42:39;84.73;;;48.57;;
34060;SDS011;20336;-33.424;-70.638;2023-07-24T08:45:11;69.50;;;41.77;;
34060;SDS011;20336;-33.424;-70.638;2023-07-24T08:47:41;71.70;;;42.87;;
34060;SDS011;20336;-33.424;-70.638;2023-07-24T08:50:09;76.53;;;46.67;;
34060;SDS011;20336;-33.424;-70.638;2023-07-24T08:52:38;68.10;;;42.93;;
34060;SDS011;20336;-33.424;-70.638;2023-07-24T08:55:05;66.43;;;39.07;;
34060;SDS011;20336;-33.424;-70.638;2023-07-24T08:57:33;64.93;;;40.87;;
34060;SDS011;20336;-33.424;-70.638;2023-07-24T09:00:00;81.90;;;49.83;;
34060;SDS011;20336;-33.424;-70.638;2023-07-24T09:02:30;64.33;;;38.70;;
34060;SDS011;20336;-33.424;-70.638;2023-07-24T09:05:01;68.30;;;40.63;;
34060;SDS011;20336;-33.424;-70.638;2023-07-24T09:07:29;71.37;;;42.07;;
34060;SDS011;20336;-33.424;-70.638;2023-07-24T09:09:57;70.03;;;41.73;;
34060;SDS011;20336;-33.424;-70.638;2023-07-24T09:12:24;74.10;;;42.83;;
34060;SDS011;20336;-33.424;-70.638;2023-07-24T09:15:11;61.80;;;36.67;;
34060;SDS011;20336;-33.424;-70.638;2023-07-24T09:17:46;52.77;;;34.07;;
34060;SDS011;20336;-33.424;-70.638;2023-07-24T09:20:14;53.67;;;35.60;;
34060;SDS011;20336;-33.424;-70.638;2023-07-24T09:22:48;56.43;;;33.63;;
34060;SDS011;20336;-33.424;-70.638;2023-07-24T09:25:16;49.60;;;32.53;;
34060;SDS011;20336;-33.424;-70.638;2023-07-24T09:27:43;59.40;;;38.23;;
34060;SDS011;20336;-33.424;-70.638;2023-07-24T09:30:13;69.10;;;40.43;;
34060;SDS011;20336;-33.424;-70.638;2023-07-24T09:32:40;61.17;;;36.63;;
34060;SDS011;20336;-33.424;-70.638;2023-07-24T09:35:16;51.63;;;33.77;;
34060;SDS011;20336;-33.424;-70.638;2023-07-24T09:37:44;61.43;;;37.73;;
34060;SDS011;20336;-33.424;-70.638;2023-07-24T09:40:11;55.77;;;35.13;;
34060;SDS011;20336;-33.424;-70.638;2023-07-24T09:42:41;48.63;;;30.60;;
34060;SDS011;20336;-33.424;-70.638;2023-07-24T09:45:08;51.80;;;30.97;;
34060;SDS011;20336;-33.424;-70.638;2023-07-24T09:47:35;47.93;;;30.40;;
34060;SDS011;20336;-33.424;-70.638;2023-07-24T09:50:03;46.60;;;27.93;;
34060;SDS011;20336;-33.424;-70.638;2023-07-24T09:52:30;44.90;;;27.30;;
34060;SDS011;20336;-33.424;-70.638;2023-07-24T09:57:35;53.47;;;32.77;;
34060;SDS011;20336;-33.424;-70.638;2023-07-24T10:00:03;47.43;;;28.50;;
34060;SDS011;20336;-33.424;-70.638;2023-07-24T10:02:32;50.83;;;30.57;;
34060;SDS011;20336;-33.424;-70.638;2023-07-24T10:04:59;41.20;;;27.00;;
34060;SDS011;20336;-33.424;-70.638;2023-07-24T10:07:27;39.80;;;24.87;;
34060;SDS011;20336;-33.424;-70.638;2023-07-24T10:09:54;70.73;;;37.53;;
34060;SDS011;20336;-33.424;-70.638;2023-07-24T10:12:21;81.13;;;37.57;;
34060;SDS011;20336;-33.424;-70.638;2023-07-24T10:14:53;45.10;;;24.20;;
34060;SDS011;20336;-33.424;-70.638;2023-07-24T10:17:33;38.60;;;22.00;;
34060;SDS011;20336;-33.424;-70.638;2023-07-24T10:20:08;39.27;;;23.70;;
34060;SDS011;20336;-33.424;-70.638;2023-07-24T10:22:36;36.00;;;21.13;;
34060;SDS011;20336;-33.424;-70.638;2023-07-24T10:25:07;31.87;;;20.60;;
34060;SDS011;20336;-33.424;-70.638;2023-07-24T10:27:44;34.20;;;21.83;;
34060;SDS011;20336;-33.424;-70.638;2023-07-24T10:30:12;46.37;;;26.37;;
34060;SDS011;20336;-33.424;-70.638;2023-07-24T10:32:48;42.97;;;27.13;;
34060;SDS011;20336;-33.424;-70.638;2023-07-24T10:35:15;41.23;;;26.73;;
34060;SDS011;20336;-33.424;-70.638;2023-07-24T10:37:43;48.57;;;28.77;;
34060;SDS011;20336;-33.424;-70.638;2023-07-24T10:40:18;52.80;;;33.30;;
34060;SDS011;20336;-33.424;-70.638;2023-07-24T10:42:46;49.73;;;29.90;;
34060;SDS011;20336;-33.424;-70.638;2023-07-24T10:45:24;62.40;;;34.93;;
34060;SDS011;20336;-33.424;-70.638;2023-07-24T10:47:51;43.00;;;27.50;;
34060;SDS011;20336;-33.424;-70.638;2023-07-24T10:50:19;45.90;;;27.20;;
34060;SDS011;20336;-33.424;-70.638;2023-07-24T10:52:46;41.83;;;25.23;;
34060;SDS011;20336;-33.424;-70.638;2023-07-24T10:55:13;43.53;;;26.47;;
34060;SDS011;20336;-33.424;-70.638;2023-07-24T10:57:40;40.27;;;25.07;;
34060;SDS011;20336;-33.424;-70.638;2023-07-24T11:00:07;37.07;;;22.33;;
34060;SDS011;20336;-33.424;-70.638;2023-07-24T11:02:35;39.33;;;20.93;;
34060;SDS011;20336;-33.424;-70.638;2023-07-24T11:05:01;35.57;;;21.20;;
34060;SDS011;20336;-33.424;-70.638;2023-07-24T11:07:31;32.33;;;19.47;;
34060;SDS011;20336;-33.424;-70.638;2023-07-24T11:09:59;34.10;;;20.80;;
34060;SDS011;20336;-33.424;-70.638;2023-07-24T11:12:26;34.33;;;22.53;;
34060;SDS011;20336;-33.424;-70.638;2023-07-24T11:14:56;36.70;;;22.93;;
34060;SDS011;20336;-33.424;-70.638;2023-07-24T11:17:33;33.37;;;20.17;;
34060;SDS011;20336;-33.424;-70.638;2023-07-24T11:20:06;32.20;;;19.93;;
34060;SDS011;20336;-33.424;-70.638;2023-07-24T11:22:34;33.83;;;20.10;;
34060;SDS011;20336;-33.424;-70.638;2023-07-24T11:25:01;34.27;;;20.67;;
34060;SDS011;20336;-33.424;-70.638;2023-07-24T11:27:30;34.63;;;19.63;;
34060;SDS011;20336;-33.424;-70.638;2023-07-24T11:29:56;31.40;;;20.27;;
34060;SDS011;20336;-33.424;-70.638;2023-07-24T11:32:23;33.93;;;19.70;;
34060;SDS011;20336;-33.424;-70.638;2023-07-24T11:34:51;39.70;;;22.13;;
34060;SDS011;20336;-33.424;-70.638;2023-07-24T11:37:18;30.73;;;18.97;;
34060;SDS011;20336;-33.424;-70.638;2023-07-24T11:39:58;34.20;;;17.53;;
34060;SDS011;20336;-33.424;-70.638;2023-07-24T11:42:36;29.00;;;17.00;;
34060;SDS011;20336;-33.424;-70.638;2023-07-24T11:45:04;29.83;;;16.07;;
34060;SDS011;20336;-33.424;-70.638;2023-07-24T11:48:08;29.67;;;17.07;;
34060;SDS011;20336;-33.424;-70.638;2023-07-24T11:50:29;26.23;;;16.17;;
34060;SDS011;20336;-33.424;-70.638;2023-07-24T11:53:07;33.90;;;19.57;;
34060;SDS011;20336;-33.424;-70.638;2023-07-24T11:55:44;31.23;;;18.90;;
34060;SDS011;20336;-33.424;-70.638;2023-07-24T11:58:14;27.13;;;16.43;;
34060;SDS011;20336;-33.424;-70.638;2023-07-24T12:00:41;23.37;;;14.93;;
34060;SDS011;20336;-33.424;-70.638;2023-07-24T12:03:09;21.40;;;13.67;;
34060;SDS011;20336;-33.424;-70.638;2023-07-24T12:05:39;22.10;;;12.60;;
34060;SDS011;20336;-33.424;-70.638;2023-07-24T12:08:07;18.93;;;12.07;;
34060;SDS011;20336;-33.424;-70.638;2023-07-24T12:10:38;17.00;;;10.70;;
34060;SDS011;20336;-33.424;-70.638;2023-07-24T12:13:05;17.57;;;10.60;;
34060;SDS011;20336;-33.424;-70.638;2023-07-24T12:15:33;20.03;;;12.27;;
34060;SDS011;20336;-33.424;-70.638;2023-07-24T12:18:01;21.67;;;11.73;;
34060;SDS011;20336;-33.424;-70.638;2023-07-24T12:20:28;19.83;;;12.30;;
34060;SDS011;20336;-33.424;-70.638;2023-07-24T12:22:56;20.83;;;11.47;;
34060;SDS011;20336;-33.424;-70.638;2023-07-24T12:25:23;20.23;;;11.90;;
34060;SDS011;20336;-33.424;-70.638;2023-07-24T12:27:50;18.67;;;11.10;;
34060;SDS011;20336;-33.424;-70.638;2023-07-24T12:30:17;17.80;;;11.13;;
34060;SDS011;20336;-33.424;-70.638;2023-07-24T12:32:44;19.80;;;11.83;;
34060;SDS011;20336;-33.424;-70.638;2023-07-24T12:35:11;21.47;;;13.47;;
34060;SDS011;20336;-33.424;-70.638;2023-07-24T12:37:38;20.93;;;13.60;;
34060;SDS011;20336;-33.424;-70.638;2023-07-24T12:40:05;26.37;;;17.20;;
34060;SDS011;20336;-33.424;-70.638;2023-07-24T12:42:33;25.53;;;16.13;;
34060;SDS011;20336;-33.424;-70.638;2023-07-24T12:45:00;25.07;;;14.50;;
34060;SDS011;20336;-33.424;-70.638;2023-07-24T12:47:30;27.63;;;15.37;;
34060;SDS011;20336;-33.424;-70.638;2023-07-24T12:49:57;30.70;;;17.80;;
34060;SDS011;20336;-33.424;-70.638;2023-07-24T12:52:26;50.50;;;30.60;;
34060;SDS011;20336;-33.424;-70.638;2023-07-24T12:54:54;43.07;;;26.60;;
34060;SDS011;20336;-33.424;-70.638;2023-07-24T12:57:21;45.83;;;28.00;;
34060;SDS011;20336;-33.424;-70.638;2023-07-24T12:59:48;47.13;;;29.00;;
34060;SDS011;20336;-33.424;-70.638;2023-07-24T13:02:15;47.20;;;29.07;;
34060;SDS011;20336;-33.424;-70.638;2023-07-24T13:04:42;46.07;;;28.23;;
34060;SDS011;20336;-33.424;-70.638;2023-07-24T13:07:08;52.60;;;32.53;;
34060;SDS011;20336;-33.424;-70.638;2023-07-24T13:09:36;43.67;;;26.47;;
34060;SDS011;20336;-33.424;-70.638;2023-07-24T13:12:02;34.10;;;20.97;;
34060;SDS011;20336;-33.424;-70.638;2023-07-24T13:14:30;27.90;;;18.47;;
34060;SDS011;20336;-33.424;-70.638;2023-07-24T13:16:56;30.87;;;17.83;;
34060;SDS011;20336;-33.424;-70.638;2023-07-24T13:19:23;36.77;;;21.50;;
34060;SDS011;20336;-33.424;-70.638;2023-07-24T13:21:50;46.00;;;27.03;;
34060;SDS011;20336;-33.424;-70.638;2023-07-24T13:24:17;38.70;;;24.63;;
34060;SDS011;20336;-33.424;-70.638;2023-07-24T13:26:44;41.50;;;24.63;;
34060;SDS011;20336;-33.424;-70.638;2023-07-24T13:29:11;36.83;;;24.47;;
34060;SDS011;20336;-33.424;-70.638;2023-07-24T13:31:37;37.60;;;25.57;;
34060;SDS011;20336;-33.424;-70.638;2023-07-24T13:34:06;38.53;;;22.67;;
34060;SDS011;20336;-33.424;-70.638;2023-07-24T13:36:33;44.27;;;26.60;;
34060;SDS011;20336;-33.424;-70.638;2023-07-24T13:39:02;44.73;;;27.80;;
34060;SDS011;20336;-33.424;-70.638;2023-07-24T13:41:29;51.00;;;32.67;;
34060;SDS011;20336;-33.424;-70.638;2023-07-24T13:43:56;54.90;;;35.80;;
34060;SDS011;20336;-33.424;-70.638;2023-07-24T13:46:22;61.67;;;38.07;;
34060;SDS011;20336;-33.424;-70.638;2023-07-24T13:48:49;53.50;;;36.43;;
34060;SDS011;20336;-33.424;-70.638;2023-07-24T13:51:16;55.90;;;32.83;;
34060;SDS011;20336;-33.424;-70.638;2023-07-24T13:53:43;44.73;;;32.13;;
34060;SDS011;20336;-33.424;-70.638;2023-07-24T13:56:12;42.27;;;26.63;;
34060;SDS011;20336;-33.424;-70.638;2023-07-24T13:58:39;45.33;;;28.57;;